Doddington, United Kingdom
Current Conditions -  °F | °C
As of 1:10 AM on Sunday 23 Nov 2014 (Local Time) from EGUN Reporting Station
Light Rain Light Rain  
Wind Chill: 54°   Ceiling: 1900
Heat Index: 54°   Visibility: 4mi
Dew Point: 54°   Wind: 2mph
Humidity: 100%   Direction: 320°NW
Pressure: 29.96"   Gusts: NA
Location:  52.5°N, 0.06°E
Report Text: EGUN 230110Z AUTO 32002KT 6000 R11/1400 -RA BR SCT006 SCT011 OVC019 12/12 A2996 RMK AO2 CIG 006V019
Loading
Personal Weather Stations






























Interactive Weather Map New forecast layout! Learn more

10-Day Weather Forecast

Advertisements
Track Severe Weather on mobile